createdAt,value
2022-08-27T00:03:18.718Z,18.59
2022-08-27T00:08:25.329Z,18.50
2022-08-27T00:13:31.258Z,18.40
2022-08-27T00:18:38.449Z,18.32
2022-08-27T00:23:44.399Z,18.31
2022-08-27T00:28:50.858Z,18.28
2022-08-27T00:33:57.739Z,18.20
2022-08-27T00:39:04.356Z,18.14
2022-08-27T00:44:12.636Z,18.09
2022-08-27T00:49:22.942Z,18.04
2022-08-27T00:54:29.618Z,18.00
2022-08-27T00:59:36.534Z,17.97
2022-08-27T01:04:44.710Z,17.92
2022-08-27T01:09:51.886Z,17.89
2022-08-27T01:14:58.850Z,17.84
2022-08-27T01:20:09.922Z,17.83
2022-08-27T01:25:15.277Z,17.78
2022-08-27T01:30:23.554Z,17.69
2022-08-27T01:35:29.993Z,17.62
2022-08-27T01:40:37.005Z,17.58
2022-08-27T01:45:49.696Z,17.55
2022-08-27T01:50:56.155Z,17.46
2022-08-27T01:56:04.723Z,17.38
2022-08-27T02:01:16.424Z,17.32
2022-08-27T02:06:22.573Z,17.26
2022-08-27T02:11:28.510Z,17.19
2022-08-27T02:16:34.401Z,17.11
2022-08-27T02:21:47.314Z,17.08
2022-08-27T02:26:53.647Z,17.08
2022-08-27T02:31:59.942Z,17.03
2022-08-27T02:37:07.340Z,16.95
2022-08-27T02:42:13.191Z,16.91
2022-08-27T02:47:19.486Z,16.85
2022-08-27T02:52:26.477Z,16.77
2022-08-27T02:57:32.400Z,16.69
2022-08-27T03:02:43.089Z,16.61
2022-08-27T03:07:49.662Z,16.57
2022-08-27T03:12:55.500Z,16.53
2022-08-27T03:18:20.299Z,16.47
2022-08-27T03:23:29.207Z,16.42
2022-08-27T03:28:36.317Z,16.37
2022-08-27T03:33:43.530Z,16.32
2022-08-27T03:38:49.934Z,16.41
2022-08-27T03:43:56.944Z,16.39
2022-08-27T03:49:02.961Z,16.29
2022-08-27T03:54:10.619Z,16.26
2022-08-27T03:59:16.663Z,16.23
2022-08-27T04:04:24.207Z,16.24
2022-08-27T04:09:30.303Z,16.29
2022-08-27T04:14:36.180Z,16.38
2022-08-27T04:19:42.325Z,16.49
2022-08-27T04:24:48.423Z,16.58
2022-08-27T04:29:58.257Z,16.97
2022-08-27T04:35:04.706Z,17.13
2022-08-27T04:40:12.149Z,17.31
2022-08-27T04:45:18.167Z,18.30
2022-08-27T04:50:24.711Z,19.40
2022-08-27T04:55:40.745Z,20.49
2022-08-27T05:00:49.401Z,22.44
2022-08-27T05:06:02.539Z,23.61
2022-08-27T05:11:13.032Z,24.58
2022-08-27T05:16:21.856Z,25.74
2022-08-27T05:21:31.780Z,26.44
2022-08-27T05:26:37.890Z,27.95
2022-08-27T05:31:44.181Z,28.50
2022-08-27T05:36:50.171Z,28.61
2022-08-27T05:41:59.250Z,29.63
2022-08-27T05:47:04.186Z,30.92
2022-08-27T05:52:13.699Z,32.40
2022-08-27T05:57:19.702Z,33.52
2022-08-27T06:02:25.719Z,34.43
2022-08-27T06:07:32.607Z,35.98
2022-08-27T06:12:39.306Z,37.41
2022-08-27T06:17:45.174Z,37.70
2022-08-27T06:22:52.069Z,38.95
2022-08-27T06:27:58.598Z,39.80
2022-08-27T06:33:03.230Z,40.05
2022-08-27T06:38:09.793Z,40.60
2022-08-27T06:43:15.965Z,41.39
2022-08-27T06:48:21.805Z,41.71
2022-08-27T06:53:27.953Z,42.26
2022-08-27T06:58:34.559Z,42.70
2022-08-27T07:03:40.808Z,42.49
2022-08-27T07:08:53.229Z,42.86
2022-08-27T07:14:00.485Z,43.39
2022-08-27T07:19:07.311Z,43.66
2022-08-27T07:24:13.301Z,43.90
2022-08-27T07:29:20.079Z,44.03
2022-08-27T07:34:26.110Z,44.18
2022-08-27T07:39:32.067Z,44.62
2022-08-27T07:44:38.013Z,44.68
2022-08-27T07:49:44.049Z,44.76
2022-08-27T07:54:50.253Z,44.88
2022-08-27T07:59:56.439Z,45.33
2022-08-27T08:05:02.825Z,45.53
2022-08-27T08:10:11.408Z,45.45
2022-08-27T08:15:18.088Z,45.47
2022-08-27T08:20:35.998Z,45.67
2022-08-27T08:25:50.082Z,45.57
2022-08-27T08:30:56.578Z,44.86
2022-08-27T08:36:08.258Z,44.20
2022-08-27T08:41:37.013Z,44.22
2022-08-27T08:46:49.941Z,44.44
2022-08-27T08:52:02.349Z,44.53
2022-08-27T08:57:18.682Z,45.02
2022-08-27T09:02:24.885Z,45.20
2022-08-27T09:07:40.700Z,45.32
2022-08-27T09:12:46.742Z,45.11
2022-08-27T09:17:51.182Z,45.12
2022-08-27T09:23:09.411Z,44.97
2022-08-27T09:28:38.762Z,45.29
2022-08-27T09:33:56.785Z,45.16
2022-08-27T09:39:08.305Z,45.18
2022-08-27T09:44:17.789Z,45.09
2022-08-27T09:49:24.664Z,45.07
2022-08-27T09:54:41.916Z,45.10
2022-08-27T09:59:53.939Z,44.99
2022-08-27T10:05:13.854Z,44.66
2022-08-27T10:10:24.198Z,44.54
2022-08-27T10:15:36.441Z,44.63
2022-08-27T10:21:05.633Z,43.81
2022-08-27T10:26:21.558Z,43.38
2022-08-27T10:31:35.406Z,43.29
2022-08-27T10:36:52.850Z,43.27
2022-08-27T10:42:08.155Z,42.49
2022-08-27T10:47:27.157Z,41.55
2022-08-27T10:52:38.123Z,41.22
2022-08-27T10:58:13.395Z,41.13
2022-08-27T11:03:32.185Z,40.70
2022-08-27T11:08:43.006Z,40.90
2022-08-27T11:13:53.444Z,40.87
2022-08-27T11:19:12.798Z,40.47
2022-08-27T11:24:31.958Z,40.01
2022-08-27T11:29:49.842Z,39.47
2022-08-27T11:34:59.421Z,39.06
2022-08-27T11:40:38.206Z,38.48
2022-08-27T11:45:57.502Z,37.96
2022-08-27T11:51:06.294Z,37.67
2022-08-27T11:56:20.796Z,37.41
2022-08-27T12:01:31.691Z,37.14
2022-08-27T12:06:45.276Z,37.06
2022-08-27T12:12:00.597Z,37.21
2022-08-27T12:20:55.340Z,36.95
2022-08-27T12:26:39.155Z,36.62
2022-08-27T12:32:04.911Z,36.62
2022-08-27T12:37:27.759Z,36.58
2022-08-27T12:42:49.779Z,36.62
2022-08-27T12:48:24.699Z,36.56
2022-08-27T12:54:08.071Z,36.42
2022-08-27T12:59:57.395Z,36.25
2022-08-27T13:05:52.053Z,35.87
2022-08-27T13:11:31.654Z,35.57
2022-08-27T13:16:57.490Z,35.61
2022-08-27T13:22:24.939Z,35.81
2022-08-27T13:28:20.064Z,35.70
2022-08-27T13:33:45.646Z,35.62
2022-08-27T13:39:13.720Z,35.46
2022-08-27T13:45:01.374Z,35.39
2022-08-27T13:50:38.938Z,35.29
2022-08-27T13:56:07.784Z,35.26
2022-08-27T14:01:36.025Z,35.02
2022-08-27T14:13:13.225Z,34.01
2022-08-27T14:19:04.017Z,33.54
2022-08-27T14:25:17.875Z,32.99
2022-08-27T14:30:29.987Z,32.59
2022-08-27T14:35:38.653Z,32.25
2022-08-27T14:40:44.957Z,31.99
2022-08-27T14:45:53.469Z,31.78
2022-08-27T14:51:02.326Z,31.50
2022-08-27T14:56:08.920Z,31.33
2022-08-27T15:01:16.018Z,31.35
2022-08-27T15:06:23.741Z,31.38
2022-08-27T15:11:32.091Z,31.30
2022-08-27T15:16:41.130Z,31.25
2022-08-27T15:21:48.944Z,31.20
2022-08-27T15:26:59.246Z,31.14
2022-08-27T15:32:06.279Z,31.00
2022-08-27T15:37:12.186Z,30.90
2022-08-27T15:42:18.786Z,30.83
2022-08-27T15:47:25.095Z,30.80
2022-08-27T15:52:40.305Z,30.74
2022-08-27T15:57:47.172Z,30.68
2022-08-27T16:02:54.128Z,30.59
2022-08-27T16:08:00.103Z,30.44
2022-08-27T16:13:06.135Z,30.30
2022-08-27T16:18:12.305Z,30.18
2022-08-27T16:23:19.979Z,30.03
2022-08-27T16:28:26.189Z,29.87
2022-08-27T16:33:34.823Z,29.70
2022-08-27T16:38:45.662Z,29.52
2022-08-27T16:43:51.487Z,29.35
2022-08-27T16:49:16.426Z,29.15
2022-08-27T16:54:22.418Z,28.88
2022-08-27T16:59:28.378Z,28.59
2022-08-27T17:04:38.030Z,28.35
2022-08-27T17:09:48.224Z,28.07
2022-08-27T17:14:55.837Z,27.73
2022-08-27T17:20:02.593Z,27.28
2022-08-27T17:25:10.619Z,26.80
2022-08-27T17:30:16.743Z,26.34
2022-08-27T17:35:22.834Z,25.91
2022-08-27T17:40:28.795Z,25.65
2022-08-27T17:45:34.909Z,25.25
2022-08-27T17:50:40.984Z,25.01
2022-08-27T17:55:46.785Z,24.78
2022-08-27T18:00:53.229Z,24.50
2022-08-27T18:05:59.184Z,24.19
2022-08-27T18:11:07.113Z,23.85
2022-08-27T18:16:13.110Z,23.61
2022-08-27T18:21:25.114Z,23.39
2022-08-27T18:26:33.385Z,23.17
2022-08-27T18:31:39.294Z,22.94
2022-08-27T18:36:45.219Z,22.70
2022-08-27T18:41:51.314Z,22.54
2022-08-27T18:46:57.409Z,22.38
2022-08-27T18:52:04.665Z,22.20
2022-08-27T18:57:13.183Z,22.02
2022-08-27T19:02:21.840Z,21.83
2022-08-27T19:07:36.404Z,21.69
2022-08-27T19:12:58.973Z,21.54
2022-08-27T19:18:09.412Z,21.42
2022-08-27T19:23:15.473Z,21.27
2022-08-27T19:28:35.681Z,21.16
2022-08-27T19:33:41.868Z,21.04
2022-08-27T19:38:51.570Z,20.77
2022-08-27T19:44:03.882Z,20.43
2022-08-27T19:49:10.336Z,20.38
2022-08-27T19:54:16.157Z,20.31
2022-08-27T19:59:22.124Z,20.20
2022-08-27T20:04:32.463Z,20.05
2022-08-27T20:09:41.663Z,19.92
2022-08-27T20:14:47.509Z,19.79
2022-08-27T20:19:58.932Z,19.66
2022-08-27T20:25:05.594Z,19.52
2022-08-27T20:30:14.025Z,19.41
2022-08-27T20:35:20.613Z,19.36
2022-08-27T20:40:31.629Z,19.31
2022-08-27T20:45:41.603Z,19.28
2022-08-27T20:50:59.457Z,19.18
2022-08-27T20:56:24.129Z,19.09
2022-08-27T21:01:31.767Z,19.00
2022-08-27T21:06:37.683Z,18.93
2022-08-27T21:11:43.465Z,18.86
2022-08-27T21:16:49.483Z,18.80
2022-08-27T21:21:55.754Z,18.71
2022-08-27T21:27:01.714Z,18.59
2022-08-27T21:32:09.625Z,18.46
2022-08-27T21:37:16.184Z,18.35
2022-08-27T21:42:22.201Z,18.27
2022-08-27T21:47:29.478Z,18.21
2022-08-27T21:52:35.436Z,18.14
2022-08-27T21:57:41.381Z,18.05
2022-08-27T22:02:47.124Z,17.99
2022-08-27T22:07:52.857Z,17.96
2022-08-27T22:12:59.095Z,17.95
2022-08-27T22:18:07.477Z,17.85
2022-08-27T22:23:14.356Z,17.72
2022-08-27T22:28:20.321Z,17.64
2022-08-27T22:33:26.163Z,17.59
2022-08-27T22:38:32.042Z,17.56
2022-08-27T22:43:39.090Z,17.47
2022-08-27T22:48:47.764Z,17.35
2022-08-27T22:53:53.847Z,17.27
2022-08-27T22:59:00.078Z,17.23
2022-08-27T23:04:06.868Z,17.21
2022-08-27T23:09:12.746Z,17.17
2022-08-27T23:14:18.551Z,17.08
2022-08-27T23:19:24.440Z,17.03
2022-08-27T23:24:30.314Z,17.02
2022-08-27T23:29:36.763Z,17.01
2022-08-27T23:34:42.668Z,16.93
2022-08-27T23:39:48.687Z,16.87
2022-08-27T23:44:55.228Z,16.91
2022-08-27T23:50:01.180Z,16.95
2022-08-27T23:55:10.475Z,16.85
